Sarona, Wisconsin
Current Conditions -  °F | °C
As of 2:55 PM on Tuesday 25 Nov 2014 (Local Time) from KUBE Reporting Station
Overcast Overcast  
Wind Chill: 13°   Ceiling: 3200
Heat Index: 19°   Visibility: 10mi
Dew Point: 12°   Wind: 5mph
Humidity: 74%   Direction: 210°SSW
Pressure: 30.01"   Gusts: NA
Location:  45.71°N, 91.81°W
Report Text: KUBE 252055Z AUTO 21004KT 10SM OVC032 M07/M11 A3001 RMK AO2
Loading
Personal Weather Stations






























Interactive Weather Map New forecast layout! Learn more

10-Day Weather Forecast

Advertisements
Track Severe Weather on mobile